createdAt,value
2023-05-09T00:00:46.499Z,100.00
2023-05-09T00:03:14.275Z,100.00
2023-05-09T00:05:41.816Z,100.00
2023-05-09T00:08:08.522Z,100.00
2023-05-09T00:10:35.129Z,100.00
2023-05-09T00:13:01.753Z,100.00
2023-05-09T00:15:28.756Z,100.00
2023-05-09T00:17:55.318Z,100.00
2023-05-09T00:20:22.058Z,100.00
2023-05-09T00:22:48.636Z,100.00
2023-05-09T00:25:15.336Z,100.00
2023-05-09T00:27:41.940Z,100.00
2023-05-09T00:30:09.060Z,100.00
2023-05-09T00:32:37.102Z,100.00
2023-05-09T00:35:05.210Z,100.00
2023-05-09T00:37:31.731Z,100.00
2023-05-09T00:39:58.199Z,100.00
2023-05-09T00:42:24.860Z,100.00
2023-05-09T00:44:51.367Z,100.00
2023-05-09T00:47:18.158Z,100.00
2023-05-09T00:49:44.766Z,100.00
2023-05-09T00:52:11.420Z,100.00
2023-05-09T00:54:38.039Z,100.00
2023-05-09T00:57:04.677Z,100.00
2023-05-09T00:59:31.367Z,100.00
2023-05-09T01:01:57.909Z,100.00
2023-05-09T01:04:24.856Z,100.00
2023-05-09T01:07:30.238Z,100.00
2023-05-09T01:10:12.001Z,100.00
2023-05-09T01:12:52.330Z,100.00
2023-05-09T01:15:32.666Z,100.00
2023-05-09T01:18:27.743Z,100.00
2023-05-09T01:21:07.616Z,100.00
2023-05-09T01:24:23.371Z,100.00
2023-05-09T01:27:13.068Z,100.00
2023-05-09T01:29:48.051Z,100.00
2023-05-09T01:32:22.773Z,100.00
2023-05-09T01:34:54.338Z,100.00
2023-05-09T01:37:30.591Z,100.00
2023-05-09T01:40:08.203Z,100.00
2023-05-09T01:42:45.390Z,100.00
2023-05-09T01:45:15.686Z,100.00
2023-05-09T01:47:44.654Z,100.00
2023-05-09T01:50:13.060Z,100.00
2023-05-09T01:52:43.336Z,100.00
2023-05-09T01:55:13.287Z,100.00
2023-05-09T01:57:43.009Z,100.00
2023-05-09T02:00:13.711Z,100.00
2023-05-09T02:02:41.400Z,100.00
2023-05-09T02:05:11.776Z,100.00
2023-05-09T02:07:41.995Z,100.00
2023-05-09T02:10:11.452Z,100.00
2023-05-09T02:12:38.752Z,100.00
2023-05-09T02:15:07.257Z,100.00
2023-05-09T02:17:33.749Z,100.00
2023-05-09T02:20:00.419Z,100.00
2023-05-09T02:22:28.289Z,100.00
2023-05-09T02:24:55.281Z,100.00
2023-05-09T02:27:22.699Z,100.00
2023-05-09T02:29:57.499Z,100.00
2023-05-09T02:32:31.600Z,100.00
2023-05-09T02:35:01.859Z,100.00
2023-05-09T02:37:29.257Z,100.00
2023-05-09T02:39:56.560Z,100.00
2023-05-09T02:42:28.694Z,100.00
2023-05-09T02:44:56.423Z,100.00
2023-05-09T02:47:23.422Z,100.00
2023-05-09T02:49:49.998Z,100.00
2023-05-09T02:52:16.599Z,100.00
2023-05-09T02:54:43.126Z,100.00
2023-05-09T02:57:09.734Z,100.00
2023-05-09T02:59:36.506Z,100.00
2023-05-09T03:02:03.060Z,100.00
2023-05-09T03:04:29.618Z,100.00
2023-05-09T03:06:56.218Z,100.00
2023-05-09T03:09:22.729Z,100.00
2023-05-09T03:11:50.421Z,100.00
2023-05-09T03:14:16.989Z,100.00
2023-05-09T03:16:43.512Z,100.00
2023-05-09T03:19:11.235Z,100.00
2023-05-09T03:21:37.787Z,100.00
2023-05-09T03:24:05.992Z,100.00
2023-05-09T03:26:32.491Z,100.00
2023-05-09T03:28:59.120Z,100.00
2023-05-09T03:31:35.644Z,100.00
2023-05-09T03:34:02.214Z,100.00
2023-05-09T03:36:28.882Z,100.00
2023-05-09T03:38:55.386Z,100.00
2023-05-09T03:41:26.708Z,100.00
2023-05-09T03:43:53.218Z,100.00
2023-05-09T03:46:19.748Z,100.00
2023-05-09T03:48:46.258Z,100.00
2023-05-09T03:51:12.779Z,100.00
2023-05-09T03:53:39.426Z,100.00
2023-05-09T03:56:09.594Z,100.00
2023-05-09T03:58:36.280Z,100.00
2023-05-09T04:01:05.883Z,100.00
2023-05-09T04:03:33.186Z,100.00
2023-05-09T04:06:00.179Z,100.00
2023-05-09T04:08:27.428Z,100.00
2023-05-09T04:10:54.013Z,100.00
2023-05-09T04:13:20.543Z,100.00
2023-05-09T04:15:47.081Z,100.00
2023-05-09T04:18:13.684Z,100.00
2023-05-09T04:20:40.354Z,100.00
2023-05-09T04:23:07.045Z,100.00
2023-05-09T04:25:34.444Z,100.00
2023-05-09T04:28:09.059Z,100.00
2023-05-09T04:30:35.575Z,100.00
2023-05-09T04:33:02.155Z,100.00
2023-05-09T04:35:28.596Z,100.00
2023-05-09T04:37:55.171Z,100.00
2023-05-09T04:40:21.692Z,100.00
2023-05-09T04:42:48.173Z,100.00
2023-05-09T04:45:16.911Z,100.00
2023-05-09T04:47:44.043Z,100.00
2023-05-09T04:50:11.186Z,100.00
2023-05-09T04:52:37.887Z,100.00
2023-05-09T04:55:04.775Z,100.00
2023-05-09T04:57:31.205Z,100.00
2023-05-09T04:59:57.804Z,100.00
2023-05-09T05:02:25.167Z,100.00
2023-05-09T05:04:56.105Z,100.00
2023-05-09T05:07:26.674Z,100.00
2023-05-09T05:09:53.134Z,100.00
2023-05-09T05:12:20.573Z,100.00
2023-05-09T05:14:47.074Z,100.00
2023-05-09T05:17:20.323Z,100.00
2023-05-09T05:19:49.443Z,100.00
2023-05-09T05:22:16.016Z,100.00
2023-05-09T05:24:46.624Z,100.00
2023-05-09T05:27:16.213Z,100.00
2023-05-09T05:29:42.727Z,100.00
2023-05-09T05:32:10.630Z,100.00
2023-05-09T05:34:39.304Z,100.00
2023-05-09T05:37:05.907Z,100.00
2023-05-09T05:39:32.465Z,100.00
2023-05-09T05:41:58.988Z,100.00
2023-05-09T05:44:25.454Z,100.00
2023-05-09T05:47:01.578Z,100.00
2023-05-09T05:49:30.121Z,100.00
2023-05-09T05:52:00.745Z,100.00
2023-05-09T05:54:27.246Z,100.00
2023-05-09T05:56:53.681Z,100.00
2023-05-09T05:59:20.099Z,100.00
2023-05-09T06:01:46.724Z,100.00
2023-05-09T06:04:13.343Z,100.00
2023-05-09T06:06:40.552Z,100.00
2023-05-09T06:09:07.080Z,100.00
2023-05-09T06:11:33.554Z,100.00
2023-05-09T06:14:00.143Z,100.00
2023-05-09T06:16:26.624Z,100.00
2023-05-09T06:18:55.730Z,100.00
2023-05-09T06:21:23.345Z,100.00
2023-05-09T06:24:01.994Z,100.00
2023-05-09T06:26:35.196Z,100.00
2023-05-09T06:29:01.908Z,100.00
2023-05-09T06:31:28.672Z,100.00
2023-05-09T06:33:55.342Z,100.00
2023-05-09T06:36:21.842Z,100.00
2023-05-09T06:38:48.356Z,100.00
2023-05-09T06:41:14.857Z,100.00
2023-05-09T06:43:41.415Z,100.00
2023-05-09T06:46:08.122Z,100.00
2023-05-09T06:48:34.674Z,100.00
2023-05-09T06:51:01.181Z,100.00
2023-05-09T06:53:27.650Z,100.00
2023-05-09T06:55:54.157Z,100.00
2023-05-09T06:58:21.454Z,100.00
2023-05-09T07:00:48.663Z,100.00
2023-05-09T07:03:15.828Z,100.00
2023-05-09T07:05:42.344Z,100.00
2023-05-09T07:08:08.825Z,100.00
2023-05-09T07:10:35.637Z,100.00
2023-05-09T07:13:02.258Z,100.00
2023-05-09T07:15:40.484Z,100.00
2023-05-09T07:18:09.320Z,100.00
2023-05-09T07:20:35.945Z,100.00
2023-05-09T07:23:05.833Z,100.00
2023-05-09T07:25:32.763Z,100.00
2023-05-09T07:27:59.250Z,100.00
2023-05-09T07:30:25.804Z,100.00
2023-05-09T07:32:52.859Z,100.00
2023-05-09T07:35:27.901Z,100.00
2023-05-09T07:37:57.864Z,100.00
2023-05-09T07:40:25.327Z,100.00
2023-05-09T07:42:54.067Z,100.00
2023-05-09T07:45:22.799Z,100.00
2023-05-09T07:47:50.916Z,100.00
2023-05-09T07:50:17.632Z,100.00
2023-05-09T07:52:47.037Z,100.00
2023-05-09T07:55:13.858Z,100.00
2023-05-09T07:57:40.975Z,100.00
2023-05-09T08:00:09.032Z,100.00
2023-05-09T08:02:36.126Z,100.00
2023-05-09T08:05:03.227Z,100.00
2023-05-09T08:07:29.891Z,100.00
2023-05-09T08:09:56.581Z,100.00
2023-05-09T08:12:23.367Z,100.00
2023-05-09T08:14:49.882Z,100.00
2023-05-09T08:17:19.254Z,100.00
2023-05-09T08:19:45.998Z,100.00
2023-05-09T08:22:20.655Z,100.00
2023-05-09T08:24:47.913Z,100.00
2023-05-09T08:27:15.719Z,100.00
2023-05-09T08:29:43.651Z,100.00
2023-05-09T08:32:10.237Z,100.00
2023-05-09T08:34:37.186Z,100.00
2023-05-09T08:37:04.911Z,100.00
2023-05-09T08:39:35.726Z,100.00
2023-05-09T08:42:04.706Z,100.00
2023-05-09T08:44:32.243Z,100.00
2023-05-09T08:47:02.577Z,100.00
2023-05-09T08:49:30.473Z,100.00
2023-05-09T08:51:57.789Z,100.00
2023-05-09T08:54:25.140Z,100.00
2023-05-09T08:56:52.241Z,100.00
2023-05-09T08:59:22.439Z,100.00
2023-05-09T09:01:49.968Z,100.00
2023-05-09T09:04:18.196Z,100.00
2023-05-09T09:06:46.619Z,100.00
2023-05-09T09:09:15.332Z,100.00
2023-05-09T09:11:44.492Z,100.00
2023-05-09T09:14:16.722Z,100.00
2023-05-09T09:16:48.867Z,100.00
2023-05-09T09:19:20.071Z,100.00
2023-05-09T09:21:49.761Z,100.00
2023-05-09T09:24:23.306Z,100.00
2023-05-09T09:26:51.794Z,100.00
2023-05-09T09:29:20.972Z,100.00
2023-05-09T09:31:57.376Z,100.00
2023-05-09T09:34:23.931Z,100.00
2023-05-09T09:36:50.904Z,100.00
2023-05-09T09:39:17.563Z,100.00
2023-05-09T09:41:45.227Z,100.00
2023-05-09T09:44:17.732Z,100.00
2023-05-09T09:46:50.755Z,98.26
2023-05-09T09:49:21.792Z,100.00
2023-05-09T09:51:55.663Z,100.00
2023-05-09T09:54:29.583Z,99.76
2023-05-09T09:56:56.604Z,100.00
2023-05-09T09:59:27.230Z,100.00
2023-05-09T10:01:59.300Z,100.00
2023-05-09T10:04:31.718Z,100.00
2023-05-09T10:07:06.169Z,100.00
2023-05-09T10:09:39.489Z,100.00
2023-05-09T10:12:08.776Z,100.00
2023-05-09T10:14:41.657Z,98.17
2023-05-09T10:17:14.027Z,99.45
2023-05-09T10:19:47.524Z,99.44
2023-05-09T10:22:19.249Z,100.00
2023-05-09T10:25:03.355Z,100.00
2023-05-09T10:27:35.652Z,100.00
2023-05-09T10:30:08.652Z,100.00
2023-05-09T10:32:50.493Z,100.00
2023-05-09T10:35:25.114Z,100.00
2023-05-09T10:37:57.634Z,100.00
2023-05-09T10:40:24.514Z,100.00
2023-05-09T10:42:57.825Z,100.00
2023-05-09T10:45:24.927Z,100.00
2023-05-09T10:47:53.849Z,100.00
2023-05-09T10:50:21.462Z,99.69
2023-05-09T10:53:04.914Z,100.00
2023-05-09T10:55:47.315Z,100.00
2023-05-09T10:58:23.440Z,98.76
2023-05-09T11:00:53.488Z,98.21
2023-05-09T11:03:21.628Z,100.00
2023-05-09T11:05:56.355Z,100.00
2023-05-09T11:08:34.390Z,100.00
2023-05-09T11:11:07.523Z,99.48
2023-05-09T11:13:38.349Z,100.00
2023-05-09T11:16:09.312Z,99.65
2023-05-09T11:18:55.612Z,98.92
2023-05-09T11:21:22.237Z,96.35
2023-05-09T11:23:49.720Z,94.05
2023-05-09T11:26:22.219Z,96.66
2023-05-09T11:28:54.405Z,95.46
2023-05-09T11:31:21.163Z,92.44
2023-05-09T11:33:55.112Z,91.44
2023-05-09T11:36:33.689Z,93.16
2023-05-09T11:39:03.081Z,89.11
2023-05-09T11:41:39.291Z,89.84
2023-05-09T11:44:14.445Z,87.32
2023-05-09T11:46:41.040Z,87.95
2023-05-09T11:49:09.540Z,84.06
2023-05-09T11:51:38.098Z,87.94
2023-05-09T11:54:07.475Z,85.19
2023-05-09T11:56:36.223Z,88.94
2023-05-09T11:59:02.770Z,90.46
2023-05-09T12:01:30.632Z,88.54
2023-05-09T12:03:59.331Z,87.75
2023-05-09T12:06:27.174Z,89.24
2023-05-09T12:09:00.012Z,92.55
2023-05-09T12:11:32.236Z,91.88
2023-05-09T12:14:01.272Z,91.63
2023-05-09T12:16:28.809Z,88.04
2023-05-09T12:18:55.348Z,90.38
2023-05-09T12:21:22.241Z,90.09
2023-05-09T12:23:51.787Z,91.90
2023-05-09T12:26:22.604Z,88.38
2023-05-09T12:28:50.706Z,93.11
2023-05-09T12:31:25.523Z,92.13
2023-05-09T12:33:52.294Z,88.33
2023-05-09T12:36:25.952Z,85.13
2023-05-09T12:38:55.251Z,89.22
2023-05-09T12:41:37.029Z,88.37
2023-05-09T12:44:06.237Z,90.56
2023-05-09T12:46:40.112Z,87.82
2023-05-09T12:49:22.313Z,87.74
2023-05-09T12:51:50.502Z,90.48
2023-05-09T12:54:29.714Z,89.26
2023-05-09T12:56:59.589Z,90.75
2023-05-09T12:59:28.929Z,91.79
2023-05-09T13:02:00.018Z,86.75
2023-05-09T13:04:28.981Z,88.87
2023-05-09T13:06:59.831Z,90.64
2023-05-09T13:09:27.889Z,91.57
2023-05-09T13:11:54.480Z,92.40
2023-05-09T13:14:23.273Z,93.14
2023-05-09T13:16:51.042Z,92.35
2023-05-09T13:19:17.482Z,93.50
2023-05-09T13:21:44.014Z,94.09
2023-05-09T13:24:10.511Z,93.83
2023-05-09T13:26:37.109Z,93.70
2023-05-09T13:29:03.644Z,93.97
2023-05-09T13:31:31.596Z,92.66
2023-05-09T13:33:58.555Z,94.64
2023-05-09T13:36:25.569Z,94.08
2023-05-09T13:38:52.068Z,92.25
2023-05-09T13:41:23.590Z,96.07
2023-05-09T13:43:51.200Z,96.84
2023-05-09T13:46:17.748Z,97.33
2023-05-09T13:48:44.818Z,97.88
2023-05-09T13:51:11.450Z,98.65
2023-05-09T13:53:39.245Z,98.78
2023-05-09T13:56:09.447Z,100.00
2023-05-09T13:58:36.371Z,100.00
2023-05-09T14:01:03.158Z,100.00
2023-05-09T14:03:29.787Z,100.00
2023-05-09T14:05:58.766Z,100.00
2023-05-09T14:08:27.011Z,100.00
2023-05-09T14:10:53.589Z,100.00
2023-05-09T14:13:21.985Z,100.00
2023-05-09T14:15:51.995Z,100.00
2023-05-09T14:18:20.755Z,100.00
2023-05-09T14:20:47.861Z,100.00
2023-05-09T14:23:14.401Z,100.00
2023-05-09T14:25:40.932Z,100.00
2023-05-09T14:28:09.249Z,100.00
2023-05-09T14:30:36.758Z,100.00
2023-05-09T14:33:03.269Z,100.00
2023-05-09T14:35:32.732Z,100.00
2023-05-09T14:38:01.268Z,100.00
2023-05-09T14:40:32.051Z,100.00
2023-05-09T14:43:03.279Z,100.00
2023-05-09T14:45:32.721Z,100.00
2023-05-09T14:48:00.396Z,100.00
2023-05-09T14:50:26.917Z,100.00
2023-05-09T14:52:54.195Z,100.00
2023-05-09T14:55:24.373Z,100.00
2023-05-09T14:57:51.710Z,100.00
2023-05-09T15:00:21.851Z,100.00
2023-05-09T15:02:51.330Z,100.00
2023-05-09T15:05:25.048Z,100.00
2023-05-09T15:07:53.099Z,100.00
2023-05-09T15:10:19.987Z,100.00
2023-05-09T15:12:52.452Z,100.00
2023-05-09T15:15:24.123Z,100.00
2023-05-09T15:17:53.520Z,100.00
2023-05-09T15:20:20.933Z,100.00
2023-05-09T15:22:53.033Z,100.00
2023-05-09T15:25:20.466Z,100.00
2023-05-09T15:27:46.955Z,100.00
2023-05-09T15:30:14.352Z,100.00
2023-05-09T15:32:42.125Z,100.00
2023-05-09T15:35:09.371Z,100.00
2023-05-09T15:37:36.588Z,100.00
2023-05-09T15:40:11.544Z,100.00
2023-05-09T15:42:39.052Z,100.00
2023-05-09T15:45:06.803Z,100.00
2023-05-09T15:47:33.511Z,100.00
2023-05-09T15:50:00.085Z,100.00
2023-05-09T15:52:27.686Z,100.00
2023-05-09T15:54:56.304Z,100.00
2023-05-09T15:57:23.137Z,100.00
2023-05-09T15:59:49.703Z,100.00
2023-05-09T16:02:16.219Z,100.00
2023-05-09T16:04:44.332Z,100.00
2023-05-09T16:07:11.485Z,100.00
2023-05-09T16:09:38.241Z,100.00
2023-05-09T16:12:05.478Z,100.00
2023-05-09T16:14:32.027Z,100.00
2023-05-09T16:16:58.750Z,100.00
2023-05-09T16:19:25.511Z,100.00
2023-05-09T16:21:52.693Z,100.00
2023-05-09T16:24:20.047Z,100.00
2023-05-09T16:26:46.854Z,100.00
2023-05-09T16:29:13.893Z,100.00
2023-05-09T16:31:40.939Z,100.00
2023-05-09T16:34:08.034Z,100.00
2023-05-09T16:36:37.132Z,100.00
2023-05-09T16:39:03.751Z,100.00
2023-05-09T16:41:32.904Z,100.00
2023-05-09T16:44:04.114Z,100.00
2023-05-09T16:46:31.469Z,100.00
2023-05-09T16:48:57.906Z,100.00
2023-05-09T16:51:24.569Z,100.00
2023-05-09T16:53:51.165Z,100.00
2023-05-09T16:56:17.891Z,100.00
2023-05-09T16:58:45.165Z,100.00
2023-05-09T17:01:12.021Z,100.00
2023-05-09T17:03:43.554Z,100.00
2023-05-09T17:06:10.304Z,100.00
2023-05-09T17:08:36.851Z,100.00
2023-05-09T17:11:11.179Z,100.00
2023-05-09T17:13:42.643Z,100.00
2023-05-09T17:16:09.198Z,100.00
2023-05-09T17:18:37.934Z,100.00
2023-05-09T17:21:06.498Z,100.00
2023-05-09T17:23:32.949Z,100.00
2023-05-09T17:25:59.559Z,100.00
2023-05-09T17:28:25.988Z,100.00
2023-05-09T17:30:52.595Z,100.00
2023-05-09T17:33:19.307Z,100.00
2023-05-09T17:35:49.314Z,100.00
2023-05-09T17:38:15.772Z,100.00
2023-05-09T17:40:42.290Z,100.00
2023-05-09T17:43:08.976Z,100.00
2023-05-09T17:45:35.906Z,100.00
2023-05-09T17:48:02.920Z,100.00
2023-05-09T17:50:29.592Z,100.00
2023-05-09T17:52:57.012Z,100.00
2023-05-09T17:55:23.616Z,100.00
2023-05-09T17:57:50.132Z,100.00
2023-05-09T18:00:17.263Z,100.00
2023-05-09T18:02:45.047Z,100.00
2023-05-09T18:05:11.597Z,100.00
2023-05-09T18:07:40.036Z,100.00
2023-05-09T18:10:08.749Z,100.00
2023-05-09T18:12:37.214Z,100.00
2023-05-09T18:15:05.811Z,100.00
2023-05-09T18:17:32.390Z,100.00
2023-05-09T18:19:58.783Z,100.00
2023-05-09T18:22:25.526Z,100.00
2023-05-09T18:24:53.010Z,100.00
2023-05-09T18:27:19.508Z,100.00
2023-05-09T18:29:47.423Z,100.00
2023-05-09T18:32:14.482Z,100.00
2023-05-09T18:34:41.573Z,100.00
2023-05-09T18:37:10.040Z,100.00
2023-05-09T18:39:36.630Z,100.00
2023-05-09T18:42:03.228Z,100.00
2023-05-09T18:44:30.035Z,100.00
2023-05-09T18:46:57.848Z,100.00
2023-05-09T18:49:26.191Z,100.00
2023-05-09T18:51:53.322Z,100.00
2023-05-09T18:54:19.815Z,100.00
2023-05-09T18:56:46.710Z,100.00
2023-05-09T18:59:16.124Z,100.00
2023-05-09T19:01:43.958Z,100.00
2023-05-09T19:04:10.889Z,100.00
2023-05-09T19:06:37.715Z,100.00
2023-05-09T19:09:04.736Z,100.00
2023-05-09T19:11:31.610Z,100.00
2023-05-09T19:13:58.300Z,100.00
2023-05-09T19:16:26.497Z,100.00
2023-05-09T19:18:57.370Z,100.00
2023-05-09T19:21:25.616Z,100.00
2023-05-09T19:23:53.238Z,100.00
2023-05-09T19:26:21.847Z,100.00
2023-05-09T19:28:48.864Z,100.00
2023-05-09T19:31:16.580Z,100.00
2023-05-09T19:33:45.849Z,100.00
2023-05-09T19:36:13.694Z,100.00
2023-05-09T19:38:40.663Z,100.00
2023-05-09T19:41:07.573Z,100.00
2023-05-09T19:43:34.486Z,100.00
2023-05-09T19:46:01.241Z,100.00
2023-05-09T19:48:28.172Z,100.00
2023-05-09T19:50:58.650Z,100.00
2023-05-09T19:53:25.692Z,100.00
2023-05-09T19:55:52.998Z,100.00
2023-05-09T19:58:20.025Z,100.00
2023-05-09T20:00:46.850Z,100.00
2023-05-09T20:03:13.706Z,100.00
2023-05-09T20:05:40.492Z,100.00
2023-05-09T20:08:07.585Z,100.00
2023-05-09T20:10:34.374Z,100.00
2023-05-09T20:13:01.254Z,100.00
2023-05-09T20:15:28.124Z,100.00
2023-05-09T20:17:54.902Z,100.00
2023-05-09T20:20:21.755Z,100.00
2023-05-09T20:22:48.613Z,100.00
2023-05-09T20:25:15.407Z,100.00
2023-05-09T20:27:42.020Z,100.00
2023-05-09T20:30:09.275Z,100.00
2023-05-09T20:32:35.844Z,100.00
2023-05-09T20:35:02.775Z,100.00
2023-05-09T20:37:29.312Z,100.00
2023-05-09T20:39:55.873Z,100.00
2023-05-09T20:42:23.188Z,100.00
2023-05-09T20:44:51.393Z,100.00
2023-05-09T20:47:17.945Z,100.00
2023-05-09T20:49:44.506Z,100.00
2023-05-09T20:52:11.103Z,100.00
2023-05-09T20:54:37.714Z,100.00
2023-05-09T20:57:04.205Z,100.00
2023-05-09T20:59:30.835Z,100.00
2023-05-09T21:01:57.425Z,100.00
2023-05-09T21:04:24.155Z,100.00
2023-05-09T21:06:50.629Z,100.00
2023-05-09T21:09:17.367Z,100.00
2023-05-09T21:11:43.856Z,100.00
2023-05-09T21:14:10.388Z,100.00
2023-05-09T21:16:37.388Z,100.00
2023-05-09T21:19:05.148Z,100.00
2023-05-09T21:21:33.787Z,100.00
2023-05-09T21:24:04.118Z,100.00
2023-05-09T21:26:30.826Z,100.00
2023-05-09T21:28:57.308Z,100.00
2023-05-09T21:31:23.917Z,100.00
2023-05-09T21:33:50.452Z,100.00
2023-05-09T21:36:16.918Z,100.00
2023-05-09T21:38:43.402Z,100.00
2023-05-09T21:41:10.165Z,100.00
2023-05-09T21:43:37.408Z,100.00
2023-05-09T21:46:05.918Z,100.00
2023-05-09T21:48:32.762Z,100.00
2023-05-09T21:51:03.880Z,100.00
2023-05-09T21:53:30.417Z,100.00
2023-05-09T21:55:56.924Z,100.00
2023-05-09T21:58:23.439Z,100.00
2023-05-09T22:00:50.076Z,100.00
2023-05-09T22:03:16.744Z,100.00
2023-05-09T22:05:43.463Z,100.00
2023-05-09T22:08:09.986Z,100.00
2023-05-09T22:10:37.576Z,100.00
2023-05-09T22:13:04.145Z,100.00
2023-05-09T22:15:30.946Z,100.00
2023-05-09T22:17:57.458Z,100.00
2023-05-09T22:20:24.229Z,100.00
2023-05-09T22:22:50.730Z,100.00
2023-05-09T22:25:17.608Z,100.00
2023-05-09T22:27:44.069Z,100.00
2023-05-09T22:30:12.397Z,100.00
2023-05-09T22:32:39.645Z,100.00
2023-05-09T22:35:06.890Z,100.00
2023-05-09T22:37:33.461Z,100.00
2023-05-09T22:40:01.485Z,100.00
2023-05-09T22:42:29.303Z,100.00
2023-05-09T22:44:55.924Z,100.00
2023-05-09T22:47:22.382Z,100.00
2023-05-09T22:49:50.517Z,100.00
2023-05-09T22:52:17.379Z,100.00
2023-05-09T22:54:44.103Z,100.00
2023-05-09T22:57:11.040Z,100.00
2023-05-09T22:59:37.662Z,100.00
2023-05-09T23:02:04.788Z,100.00
2023-05-09T23:04:31.305Z,100.00
2023-05-09T23:06:57.758Z,100.00
2023-05-09T23:09:24.295Z,100.00
2023-05-09T23:11:51.467Z,100.00
2023-05-09T23:14:18.141Z,100.00
2023-05-09T23:16:45.643Z,100.00
2023-05-09T23:19:12.154Z,100.00
2023-05-09T23:21:38.622Z,100.00
2023-05-09T23:24:05.498Z,100.00
2023-05-09T23:26:32.839Z,100.00
2023-05-09T23:28:59.305Z,100.00
2023-05-09T23:31:25.938Z,100.00
2023-05-09T23:33:52.361Z,100.00
2023-05-09T23:36:18.986Z,100.00
2023-05-09T23:38:45.509Z,100.00
2023-05-09T23:41:12.809Z,100.00
2023-05-09T23:43:39.432Z,100.00
2023-05-09T23:46:05.994Z,100.00
2023-05-09T23:48:32.504Z,100.00
2023-05-09T23:50:59.070Z,100.00
2023-05-09T23:53:26.111Z,100.00
2023-05-09T23:55:52.617Z,100.00
2023-05-09T23:58:19.056Z,100.00
